createdAt,value
2023-02-11T00:01:19.683Z,5.60
2023-02-11T00:03:47.091Z,5.60
2023-02-11T00:06:15.008Z,5.70
2023-02-11T00:08:45.641Z,5.70
2023-02-11T00:11:18.973Z,5.70
2023-02-11T00:13:47.155Z,5.70
2023-02-11T00:16:16.978Z,5.70
2023-02-11T00:18:44.898Z,5.70
2023-02-11T00:21:18.008Z,5.70
2023-02-11T00:23:46.383Z,5.70
2023-02-11T00:26:25.750Z,5.80
2023-02-11T00:28:54.447Z,5.70
2023-02-11T00:31:23.671Z,5.70
2023-02-11T00:33:52.207Z,5.80
2023-02-11T00:36:27.268Z,5.70
2023-02-11T00:38:56.166Z,5.70
2023-02-11T00:41:23.803Z,5.80
2023-02-11T00:43:51.603Z,5.80
2023-02-11T00:46:19.210Z,5.70
2023-02-11T00:48:46.553Z,5.80
2023-02-11T00:51:14.144Z,5.80
2023-02-11T00:53:42.512Z,5.80
2023-02-11T00:56:10.337Z,5.70
2023-02-11T00:58:37.766Z,5.70
2023-02-11T01:01:06.104Z,5.70
2023-02-11T01:03:33.650Z,5.70
2023-02-11T01:06:01.593Z,5.70
2023-02-11T01:08:29.031Z,5.70
2023-02-11T01:11:08.520Z,5.70
2023-02-11T01:13:40.193Z,5.70
2023-02-11T01:16:08.724Z,5.70
2023-02-11T01:18:38.309Z,5.70
2023-02-11T01:21:05.982Z,5.80
2023-02-11T01:23:33.115Z,5.80
2023-02-11T01:26:02.767Z,5.80
2023-02-11T01:28:30.882Z,5.80
2023-02-11T01:30:59.237Z,5.70
2023-02-11T01:33:26.654Z,5.70
2023-02-11T01:35:54.012Z,5.70
2023-02-11T01:38:26.177Z,5.70
2023-02-11T01:41:02.937Z,5.70
2023-02-11T01:43:34.491Z,5.70
2023-02-11T01:46:28.510Z,5.70
2023-02-11T01:49:07.700Z,5.70
2023-02-11T01:51:40.565Z,5.80
2023-02-11T01:54:30.446Z,5.70
2023-02-11T01:57:18.591Z,5.70
2023-02-11T02:00:06.449Z,5.70
2023-02-11T02:02:41.207Z,5.70
2023-02-11T02:05:11.524Z,5.70
2023-02-11T02:08:30.224Z,5.80
2023-02-11T02:11:01.080Z,5.80
2023-02-11T02:13:32.009Z,5.70
2023-02-11T02:16:09.923Z,5.80
2023-02-11T02:18:54.887Z,5.80
2023-02-11T02:21:51.118Z,5.80
2023-02-11T02:24:37.122Z,5.90
2023-02-11T02:27:19.874Z,5.80
2023-02-11T02:30:06.001Z,5.90
2023-02-11T02:32:39.193Z,5.90
2023-02-11T02:35:17.122Z,5.90
2023-02-11T02:37:59.637Z,5.90
2023-02-11T02:40:49.675Z,5.90
2023-02-11T02:43:17.738Z,5.90
2023-02-11T02:45:45.195Z,5.90
2023-02-11T02:48:36.009Z,6.00
2023-02-11T02:51:38.637Z,6.00
2023-02-11T02:54:27.744Z,6.00
2023-02-11T02:57:03.762Z,6.00
2023-02-11T02:59:39.946Z,6.00
2023-02-11T03:02:46.428Z,6.00
2023-02-11T03:05:18.922Z,6.00
2023-02-11T03:07:53.218Z,6.00
2023-02-11T03:10:31.491Z,6.10
2023-02-11T03:13:00.145Z,6.10
2023-02-11T03:15:34.317Z,6.00
2023-02-11T03:18:04.090Z,6.10
2023-02-11T03:20:35.825Z,6.10
2023-02-11T03:23:08.871Z,6.10
2023-02-11T03:25:41.758Z,6.10
2023-02-11T03:28:16.378Z,6.10
2023-02-11T03:30:55.717Z,6.10
2023-02-11T03:33:31.720Z,6.20
2023-02-11T03:36:04.738Z,6.20
2023-02-11T03:38:36.657Z,6.20
2023-02-11T03:41:07.671Z,6.20
2023-02-11T03:43:41.365Z,6.20
2023-02-11T03:46:10.209Z,6.30
2023-02-11T03:48:52.439Z,6.30
2023-02-11T03:51:22.938Z,6.30
2023-02-11T03:53:54.490Z,6.30
2023-02-11T03:56:26.700Z,6.30
2023-02-11T03:58:57.246Z,6.30
2023-02-11T04:01:24.857Z,6.30
2023-02-11T04:03:52.165Z,6.30
2023-02-11T04:06:19.484Z,6.30
2023-02-11T04:08:46.803Z,6.30
2023-02-11T04:11:14.108Z,6.30
2023-02-11T04:13:41.352Z,6.30
2023-02-11T04:16:08.832Z,6.30
2023-02-11T04:18:36.311Z,6.30
2023-02-11T04:21:03.485Z,6.30
2023-02-11T04:23:30.639Z,6.30
2023-02-11T04:25:57.973Z,6.40
2023-02-11T04:28:27.211Z,6.40
2023-02-11T04:30:55.171Z,6.40
2023-02-11T04:33:22.973Z,6.40
2023-02-11T04:35:50.706Z,6.40
2023-02-11T04:38:18.093Z,6.40
2023-02-11T04:40:45.207Z,6.40
2023-02-11T04:43:12.714Z,6.40
2023-02-11T04:45:40.528Z,6.40
2023-02-11T04:48:07.882Z,6.40
2023-02-11T04:50:35.243Z,6.40
2023-02-11T04:53:02.686Z,6.40
2023-02-11T04:55:30.249Z,6.40
2023-02-11T04:57:57.504Z,6.40
2023-02-11T05:00:24.776Z,6.50
2023-02-11T05:02:52.003Z,6.50
2023-02-11T05:05:19.358Z,6.50
2023-02-11T05:07:49.443Z,6.50
2023-02-11T05:10:16.687Z,6.50
2023-02-11T05:12:43.852Z,6.50
2023-02-11T05:15:11.163Z,6.60
2023-02-11T05:17:38.412Z,6.60
2023-02-11T05:20:06.324Z,6.60
2023-02-11T05:22:33.686Z,6.60
2023-02-11T05:25:01.030Z,6.60
2023-02-11T05:27:28.437Z,6.60
2023-02-11T05:29:55.902Z,6.60
2023-02-11T05:32:23.328Z,6.60
2023-02-11T05:34:50.674Z,6.60
2023-02-11T05:37:18.401Z,6.70
2023-02-11T05:39:45.762Z,6.70
2023-02-11T05:42:16.446Z,6.70
2023-02-11T05:44:43.903Z,6.70
2023-02-11T05:47:11.328Z,6.70
2023-02-11T05:49:38.597Z,6.70
2023-02-11T05:52:06.333Z,6.70
2023-02-11T05:54:33.535Z,6.70
2023-02-11T05:57:00.812Z,6.70
2023-02-11T05:59:28.077Z,6.70
2023-02-11T06:01:55.542Z,6.70
2023-02-11T06:04:23.037Z,6.70
2023-02-11T06:06:50.331Z,6.80
2023-02-11T06:09:17.605Z,6.70
2023-02-11T06:11:46.589Z,6.80
2023-02-11T06:14:14.611Z,6.80
2023-02-11T06:16:41.937Z,6.80
2023-02-11T06:19:09.174Z,6.80
2023-02-11T06:21:43.917Z,6.80
2023-02-11T06:24:11.993Z,6.80
2023-02-11T06:26:39.588Z,6.80
2023-02-11T06:29:06.994Z,6.80
2023-02-11T06:31:38.075Z,6.80
2023-02-11T06:34:05.569Z,6.90
2023-02-11T06:36:32.965Z,6.90
2023-02-11T06:39:00.337Z,6.90
2023-02-11T06:41:27.782Z,6.90
2023-02-11T06:43:55.177Z,6.90
2023-02-11T06:46:22.745Z,6.90
2023-02-11T06:48:52.667Z,7.00
2023-02-11T06:51:20.069Z,7.00
2023-02-11T06:53:48.023Z,7.00
2023-02-11T06:56:18.559Z,7.00
2023-02-11T06:58:46.734Z,7.10
2023-02-11T07:01:16.524Z,7.10
2023-02-11T07:03:45.829Z,7.10
2023-02-11T07:06:19.161Z,7.10
2023-02-11T07:08:46.676Z,7.10
2023-02-11T07:11:17.184Z,7.10
2023-02-11T07:13:45.209Z,7.10
2023-02-11T07:16:15.713Z,7.20
2023-02-11T07:18:43.723Z,7.20
2023-02-11T07:21:13.011Z,7.30
2023-02-11T07:23:43.449Z,7.30
2023-02-11T07:26:17.095Z,7.30
2023-02-11T07:28:45.535Z,7.30
2023-02-11T07:31:16.491Z,7.30
2023-02-11T07:33:46.247Z,7.30
2023-02-11T07:36:15.728Z,7.40
2023-02-11T07:38:43.873Z,7.40
2023-02-11T07:41:14.826Z,7.40
2023-02-11T07:43:42.564Z,7.40
2023-02-11T07:46:16.605Z,7.40
2023-02-11T07:48:44.145Z,7.40
2023-02-11T07:51:20.427Z,7.40
2023-02-11T07:53:48.365Z,7.40
2023-02-11T07:56:17.210Z,7.50
2023-02-11T07:58:45.122Z,7.50
2023-02-11T08:01:19.170Z,7.50
2023-02-11T08:03:46.703Z,7.50
2023-02-11T08:06:16.939Z,7.50
2023-02-11T08:08:45.005Z,7.50
2023-02-11T08:11:21.715Z,7.50
2023-02-11T08:13:49.554Z,7.50
2023-02-11T08:16:25.576Z,7.60
2023-02-11T08:18:54.200Z,7.60
2023-02-11T08:21:22.189Z,7.60
2023-02-11T08:23:50.160Z,7.60
2023-02-11T08:26:23.311Z,7.60
2023-02-11T08:28:52.687Z,7.70
2023-02-11T08:31:22.876Z,7.70
2023-02-11T08:33:50.449Z,7.70
2023-02-11T08:36:21.782Z,7.70
2023-02-11T08:38:48.978Z,7.80
2023-02-11T08:41:16.754Z,7.80
2023-02-11T08:43:45.364Z,7.80
2023-02-11T08:46:15.069Z,7.80
2023-02-11T08:48:45.690Z,7.80
2023-02-11T08:51:21.927Z,7.90
2023-02-11T08:53:49.964Z,7.90
2023-02-11T08:56:21.012Z,7.90
2023-02-11T08:58:48.430Z,8.00
2023-02-11T09:01:21.072Z,8.00
2023-02-11T09:03:49.799Z,8.00
2023-02-11T09:06:18.809Z,8.00
2023-02-11T09:08:49.666Z,8.00
2023-02-11T09:11:20.019Z,8.00
2023-02-11T09:13:47.362Z,8.10
2023-02-11T09:16:23.806Z,8.10
2023-02-11T09:18:51.710Z,8.10
2023-02-11T09:21:19.937Z,8.10
2023-02-11T09:23:48.127Z,8.20
2023-02-11T09:26:18.774Z,8.20
2023-02-11T09:28:47.198Z,8.20
2023-02-11T09:31:18.455Z,8.20
2023-02-11T09:33:50.152Z,8.30
2023-02-11T09:36:23.721Z,8.30
2023-02-11T09:38:51.147Z,8.30
2023-02-11T09:41:24.139Z,8.40
2023-02-11T09:43:55.113Z,8.30
2023-02-11T09:46:23.949Z,8.40
2023-02-11T09:48:55.215Z,8.40
2023-02-11T09:51:44.762Z,8.40
2023-02-11T09:54:19.669Z,8.50
2023-02-11T09:56:46.906Z,8.50
2023-02-11T09:59:16.356Z,8.50
2023-02-11T10:01:56.595Z,8.50
2023-02-11T10:05:12.838Z,8.50
2023-02-11T10:07:57.868Z,8.50
2023-02-11T10:10:48.008Z,8.60
2023-02-11T10:13:44.156Z,8.60
2023-02-11T10:16:43.241Z,8.60
2023-02-11T10:19:37.692Z,8.60
2023-02-11T10:22:28.215Z,8.60
2023-02-11T10:25:00.176Z,8.60
2023-02-11T10:27:36.027Z,8.60
2023-02-11T10:30:35.239Z,8.60
2023-02-11T10:33:23.405Z,8.70
2023-02-11T10:35:50.896Z,8.70
2023-02-11T10:38:18.285Z,8.70
2023-02-11T10:40:45.568Z,8.70
2023-02-11T10:43:16.442Z,8.70
2023-02-11T10:45:52.209Z,8.70
2023-02-11T10:48:41.420Z,8.80
2023-02-11T10:51:14.311Z,8.80
2023-02-11T10:53:42.124Z,8.80
2023-02-11T10:56:13.138Z,8.80
2023-02-11T10:58:47.179Z,8.80
2023-02-11T11:01:24.396Z,8.80
2023-02-11T11:03:53.716Z,8.80
2023-02-11T11:06:33.008Z,8.90
2023-02-11T11:09:03.602Z,8.90
2023-02-11T11:11:30.807Z,8.90
2023-02-11T11:14:00.348Z,8.90
2023-02-11T11:16:35.397Z,8.90
2023-02-11T11:19:08.505Z,8.90
2023-02-11T11:21:35.834Z,8.90
2023-02-11T11:24:04.346Z,8.90
2023-02-11T11:26:44.239Z,8.90
2023-02-11T11:29:35.054Z,8.90
2023-02-11T11:32:27.084Z,8.90
2023-02-11T11:34:57.513Z,8.90
2023-02-11T11:37:29.745Z,8.90
2023-02-11T11:40:07.957Z,8.90
2023-02-11T11:42:37.679Z,8.90
2023-02-11T11:45:26.457Z,8.90
2023-02-11T11:48:00.138Z,8.90
2023-02-11T11:50:28.558Z,9.00
2023-02-11T11:53:13.130Z,9.00
2023-02-11T11:55:59.586Z,9.00
2023-02-11T11:58:30.506Z,9.00
2023-02-11T12:01:19.300Z,9.00
2023-02-11T12:04:18.721Z,9.10
2023-02-11T12:07:04.408Z,9.10
2023-02-11T12:09:40.512Z,9.10
2023-02-11T12:12:23.329Z,9.10
2023-02-11T12:15:12.085Z,9.10
2023-02-11T12:17:57.736Z,9.10
2023-02-11T12:20:47.017Z,9.20
2023-02-11T12:23:38.523Z,9.20
2023-02-11T12:26:29.462Z,9.20
2023-02-11T12:29:22.258Z,9.20
2023-02-11T12:32:05.723Z,9.20
2023-02-11T12:34:41.851Z,9.20
2023-02-11T12:37:27.546Z,9.20
2023-02-11T12:40:11.977Z,9.20
2023-02-11T12:43:17.854Z,9.20
2023-02-11T12:46:17.000Z,9.20
2023-02-11T12:49:02.581Z,9.30
2023-02-11T12:51:44.190Z,9.20
2023-02-11T12:54:11.441Z,9.30
2023-02-11T12:56:51.011Z,9.30
2023-02-11T12:59:33.412Z,9.30
2023-02-11T13:02:12.439Z,9.30
2023-02-11T13:04:44.060Z,9.30
2023-02-11T13:07:28.349Z,9.40
2023-02-11T13:10:02.416Z,9.40
2023-02-11T13:12:52.657Z,9.40
2023-02-11T13:15:20.157Z,9.40
2023-02-11T13:18:26.866Z,9.40
2023-02-11T13:21:13.356Z,9.40
2023-02-11T13:23:46.934Z,9.40
2023-02-11T13:26:33.758Z,9.40
2023-02-11T13:29:24.827Z,9.40
2023-02-11T13:32:09.153Z,9.40
2023-02-11T13:34:42.614Z,9.40
2023-02-11T13:37:38.983Z,9.40
2023-02-11T13:40:27.200Z,9.40
2023-02-11T13:42:57.271Z,9.40
2023-02-11T13:45:45.034Z,9.40
2023-02-11T13:48:55.266Z,9.40
2023-02-11T13:51:42.433Z,9.40
2023-02-11T13:54:22.708Z,9.40
2023-02-11T13:57:36.070Z,9.40
2023-02-11T14:00:27.555Z,9.40
2023-02-11T14:03:47.027Z,9.50
2023-02-11T14:06:39.345Z,9.50
2023-02-11T14:09:09.888Z,9.50
2023-02-11T14:11:48.185Z,9.40
2023-02-11T14:14:25.450Z,9.40
2023-02-11T14:17:19.288Z,9.50
2023-02-11T14:19:48.325Z,9.50
2023-02-11T14:22:30.467Z,9.50
2023-02-11T14:25:15.889Z,9.50
2023-02-11T14:27:51.734Z,9.50
2023-02-11T14:30:28.264Z,9.40
2023-02-11T14:33:18.830Z,9.40
2023-02-11T14:36:14.365Z,9.40
2023-02-11T14:38:53.310Z,9.40
2023-02-11T14:41:25.322Z,9.40
2023-02-11T14:44:06.744Z,9.40
2023-02-11T14:46:34.399Z,9.40
2023-02-11T14:49:04.285Z,9.40
2023-02-11T14:51:38.988Z,9.40
2023-02-11T14:54:20.194Z,9.40
2023-02-11T14:56:47.578Z,9.40
2023-02-11T14:59:23.403Z,9.40
2023-02-11T15:01:54.860Z,9.30
2023-02-11T15:04:29.029Z,9.40
2023-02-11T15:06:59.722Z,9.30
2023-02-11T15:09:45.347Z,9.30
2023-02-11T15:12:26.066Z,9.30
2023-02-11T15:15:00.414Z,9.30
2023-02-11T15:17:31.920Z,9.30
2023-02-11T15:20:02.304Z,9.30
2023-02-11T15:22:37.728Z,9.30
2023-02-11T15:25:08.613Z,9.30
2023-02-11T15:27:47.679Z,9.30
2023-02-11T15:30:27.383Z,9.40
2023-02-11T15:33:03.523Z,9.30
2023-02-11T15:35:38.049Z,9.30
2023-02-11T15:38:06.077Z,9.30
2023-02-11T15:40:35.968Z,9.30
2023-02-11T15:43:11.024Z,9.30
2023-02-11T15:45:44.534Z,9.30
2023-02-11T15:48:19.641Z,9.30
2023-02-11T15:50:59.081Z,9.30
2023-02-11T15:53:40.722Z,9.30
2023-02-11T15:56:20.477Z,9.30
2023-02-11T15:58:51.808Z,9.30
2023-02-11T16:01:19.107Z,9.30
2023-02-11T16:03:51.166Z,9.30
2023-02-11T16:06:37.468Z,9.30
2023-02-11T16:09:10.388Z,9.30
2023-02-11T16:11:47.371Z,9.20
2023-02-11T16:14:42.583Z,9.20
2023-02-11T16:17:23.994Z,9.30
2023-02-11T16:19:53.102Z,9.20
2023-02-11T16:22:26.269Z,9.20
2023-02-11T16:24:56.040Z,9.20
2023-02-11T16:27:36.408Z,9.20
2023-02-11T16:30:04.726Z,9.20
2023-02-11T16:32:32.030Z,9.10
2023-02-11T16:35:01.587Z,9.10
2023-02-11T16:37:29.227Z,9.10
2023-02-11T16:40:01.451Z,9.10
2023-02-11T16:42:28.731Z,9.10
2023-02-11T16:44:57.007Z,9.10
2023-02-11T16:47:28.952Z,9.00
2023-02-11T16:49:56.529Z,9.10
2023-02-11T16:52:25.369Z,9.00
2023-02-11T16:54:52.643Z,9.10
2023-02-11T16:57:30.430Z,9.00
2023-02-11T17:00:02.280Z,9.00
2023-02-11T17:02:34.888Z,9.00
2023-02-11T17:05:05.661Z,9.00
2023-02-11T17:07:32.836Z,9.00
2023-02-11T17:10:00.322Z,9.00
2023-02-11T17:12:27.679Z,9.00
2023-02-11T17:14:55.346Z,9.00
2023-02-11T17:17:25.214Z,9.00
2023-02-11T17:19:52.480Z,9.00
2023-02-11T17:22:19.793Z,9.00
2023-02-11T17:24:46.900Z,8.90
2023-02-11T17:27:14.304Z,8.90
2023-02-11T17:29:41.513Z,8.90
2023-02-11T17:32:08.909Z,8.90
2023-02-11T17:34:36.173Z,8.90
2023-02-11T17:37:10.272Z,8.90
2023-02-11T17:39:39.501Z,8.90
2023-02-11T17:42:07.689Z,8.90
2023-02-11T17:44:35.009Z,8.90
2023-02-11T17:47:02.834Z,8.80
2023-02-11T17:49:30.358Z,8.80
2023-02-11T17:51:57.586Z,8.80
2023-02-11T17:54:25.439Z,8.80
2023-02-11T17:56:55.779Z,8.80
2023-02-11T17:59:26.332Z,8.80
2023-02-11T18:01:53.685Z,8.80
2023-02-11T18:04:21.144Z,8.80
2023-02-11T18:06:48.439Z,8.70
2023-02-11T18:09:16.063Z,8.70
2023-02-11T18:11:43.390Z,8.70
2023-02-11T18:14:11.427Z,8.70
2023-02-11T18:16:40.508Z,8.70
2023-02-11T18:19:07.978Z,8.70
2023-02-11T18:21:38.622Z,8.70
2023-02-11T18:24:07.159Z,8.70
2023-02-11T18:26:35.386Z,8.70
2023-02-11T18:29:04.105Z,8.70
2023-02-11T18:31:31.914Z,8.70
2023-02-11T18:33:59.158Z,8.60
2023-02-11T18:36:26.358Z,8.60
2023-02-11T18:38:54.579Z,8.60
2023-02-11T18:41:21.883Z,8.60
2023-02-11T18:43:51.190Z,8.60
2023-02-11T18:46:18.679Z,8.60
2023-02-11T18:48:46.414Z,8.60
2023-02-11T18:51:16.416Z,8.60
2023-02-11T18:53:43.792Z,8.60
2023-02-11T18:56:17.790Z,8.60
2023-02-11T18:58:45.033Z,8.60
2023-02-11T19:01:16.340Z,8.60
2023-02-11T19:03:44.299Z,8.60
2023-02-11T19:06:28.693Z,8.50
2023-02-11T19:08:59.923Z,8.60
2023-02-11T19:11:47.392Z,8.60
2023-02-11T19:14:18.215Z,8.50
2023-02-11T19:16:50.660Z,8.50
2023-02-11T19:19:19.293Z,8.50
2023-02-11T19:21:47.826Z,8.50
2023-02-11T19:24:16.458Z,8.50
2023-02-11T19:26:43.877Z,8.50
2023-02-11T19:29:11.225Z,8.50
2023-02-11T19:31:38.890Z,8.50
2023-02-11T19:34:07.860Z,8.50
2023-02-11T19:36:35.184Z,8.50
2023-02-11T19:39:03.014Z,8.50
2023-02-11T19:41:31.315Z,8.50
2023-02-11T19:43:59.494Z,8.50
2023-02-11T19:46:30.630Z,8.50
2023-02-11T19:49:00.626Z,8.50
2023-02-11T19:51:28.481Z,8.50
2023-02-11T19:53:55.768Z,8.50
2023-02-11T19:56:23.306Z,8.50
2023-02-11T19:58:55.041Z,8.50
2023-02-11T20:01:23.751Z,8.50
2023-02-11T20:03:53.881Z,8.50
2023-02-11T20:06:24.305Z,8.50
2023-02-11T20:09:00.620Z,8.50
2023-02-11T20:11:32.684Z,8.50
2023-02-11T20:14:00.594Z,8.50
2023-02-11T20:16:46.209Z,8.50
2023-02-11T20:19:18.446Z,8.50
2023-02-11T20:21:48.040Z,8.40
2023-02-11T20:24:16.688Z,8.40
2023-02-11T20:26:45.673Z,8.40
2023-02-11T20:29:12.812Z,8.40
2023-02-11T20:31:40.228Z,8.40
2023-02-11T20:34:07.542Z,8.40
2023-02-11T20:36:37.719Z,8.40
2023-02-11T20:39:09.899Z,8.40
2023-02-11T20:41:41.450Z,8.40
2023-02-11T20:44:10.922Z,8.40
2023-02-11T20:46:43.121Z,8.40
2023-02-11T20:49:12.794Z,8.40
2023-02-11T20:51:40.571Z,8.40
2023-02-11T20:54:11.707Z,8.40
2023-02-11T20:56:39.479Z,8.40
2023-02-11T20:59:07.236Z,8.40
2023-02-11T21:01:38.041Z,8.40
2023-02-11T21:04:08.329Z,8.40
2023-02-11T21:06:39.090Z,8.40
2023-02-11T21:09:08.756Z,8.40
2023-02-11T21:11:36.237Z,8.40
2023-02-11T21:14:04.136Z,8.40
2023-02-11T21:16:33.017Z,8.50
2023-02-11T21:19:01.078Z,8.40
2023-02-11T21:21:28.423Z,8.40
2023-02-11T21:23:56.436Z,8.40
2023-02-11T21:26:24.059Z,8.40
2023-02-11T21:28:52.446Z,8.50
2023-02-11T21:31:26.522Z,8.40
2023-02-11T21:33:55.743Z,8.40
2023-02-11T21:36:24.154Z,8.40
2023-02-11T21:38:51.505Z,8.40
2023-02-11T21:41:22.825Z,8.40
2023-02-11T21:43:51.141Z,8.40
2023-02-11T21:46:19.252Z,8.40
2023-02-11T21:48:50.322Z,8.40
2023-02-11T21:51:20.912Z,8.40
2023-02-11T21:53:50.415Z,8.40
2023-02-11T21:56:19.748Z,8.40
2023-02-11T21:58:47.473Z,8.40
2023-02-11T22:01:17.733Z,8.40
2023-02-11T22:03:46.146Z,8.40
2023-02-11T22:06:22.692Z,8.40
2023-02-11T22:08:50.566Z,8.40
2023-02-11T22:11:18.550Z,8.40
2023-02-11T22:13:46.890Z,8.40
2023-02-11T22:16:17.561Z,8.40
2023-02-11T22:18:46.865Z,8.40
2023-02-11T22:21:17.364Z,8.40
2023-02-11T22:23:44.963Z,8.40
2023-02-11T22:26:24.088Z,8.40
2023-02-11T22:28:52.181Z,8.40
2023-02-11T22:31:22.357Z,8.40
2023-02-11T22:33:49.808Z,8.40
2023-02-11T22:36:28.936Z,8.40
2023-02-11T22:38:56.443Z,8.40
2023-02-11T22:41:24.397Z,8.40
2023-02-11T22:43:51.955Z,8.40
2023-02-11T22:46:20.066Z,8.40
2023-02-11T22:48:48.214Z,8.40
2023-02-11T22:51:25.259Z,8.40
2023-02-11T22:54:01.544Z,8.40
2023-02-11T22:56:30.853Z,8.40
2023-02-11T22:59:00.657Z,8.40
2023-02-11T23:01:29.877Z,8.40
2023-02-11T23:03:58.848Z,8.40
2023-02-11T23:06:26.339Z,8.40
2023-02-11T23:08:53.945Z,8.40
2023-02-11T23:11:26.475Z,8.40
2023-02-11T23:13:54.643Z,8.40
2023-02-11T23:16:24.809Z,8.40
2023-02-11T23:18:52.441Z,8.40
2023-02-11T23:21:26.502Z,8.40
2023-02-11T23:24:03.289Z,8.40
2023-02-11T23:26:32.202Z,8.40
2023-02-11T23:29:03.003Z,8.40
2023-02-11T23:31:38.281Z,8.40
2023-02-11T23:34:05.887Z,8.40
2023-02-11T23:36:34.011Z,8.40
2023-02-11T23:39:01.666Z,8.30
2023-02-11T23:41:29.539Z,8.40
2023-02-11T23:43:58.536Z,8.40
2023-02-11T23:46:27.574Z,8.40
2023-02-11T23:48:55.278Z,8.40
2023-02-11T23:51:23.292Z,8.40
2023-02-11T23:53:51.769Z,8.40
2023-02-11T23:56:22.294Z,8.40
2023-02-11T23:58:51.290Z,8.40
